sensor_id;sensor_type;location;lat;lon;timestamp;temperature;humidity
20155;DHT22;10238;49.556;10.956;2023-04-03T18:34:41;5.60;98.00
20155;DHT22;10238;49.556;10.956;2023-04-03T18:37:58;5.60;99.20
20155;DHT22;10238;49.556;10.956;2023-04-03T18:40:58;5.50;99.90
20155;DHT22;10238;49.556;10.956;2023-04-03T18:44:31;5.40;99.60
20155;DHT22;10238;49.556;10.956;2023-04-03T18:47:20;5.30;99.90
20155;DHT22;10238;49.556;10.956;2023-04-03T18:50:12;5.10;99.90
20155;DHT22;10238;49.556;10.956;2023-04-03T18:53:00;5.20;99.90
20155;DHT22;10238;49.556;10.956;2023-04-03T18:55:48;5.00;99.90
20155;DHT22;10238;49.556;10.956;2023-04-03T18:58:37;4.80;99.90
20155;DHT22;10238;49.556;10.956;2023-04-03T19:01:26;4.80;99.90
20155;DHT22;10238;49.556;10.956;2023-04-03T19:04:14;4.70;99.90
20155;DHT22;10238;49.556;10.956;2023-04-03T19:07:04;4.60;99.90
20155;DHT22;10238;49.556;10.956;2023-04-03T19:09:52;4.60;99.90
20155;DHT22;10238;49.556;10.956;2023-04-03T19:12:41;4.40;99.90
20155;DHT22;10238;49.556;10.956;2023-04-03T19:15:31;4.30;99.90
20155;DHT22;10238;49.556;10.956;2023-04-03T19:18:19;4.20;99.90
20155;DHT22;10238;49.556;10.956;2023-04-03T19:21:07;4.10;99.90
20155;DHT22;10238;49.556;10.956;2023-04-03T19:23:54;4.10;99.90
20155;DHT22;10238;49.556;10.956;2023-04-03T19:26:44;4.00;99.90
20155;DHT22;10238;49.556;10.956;2023-04-03T19:29:32;3.90;99.90
20155;DHT22;10238;49.556;10.956;2023-04-03T19:32:22;3.90;99.90
20155;DHT22;10238;49.556;10.956;2023-04-03T19:35:11;3.90;99.90
20155;DHT22;10238;49.556;10.956;2023-04-03T19:37:58;3.80;99.90
20155;DHT22;10238;49.556;10.956;2023-04-03T19:40:46;3.70;99.90
20155;DHT22;10238;49.556;10.956;2023-04-03T19:43:34;3.50;99.90
20155;DHT22;10238;49.556;10.956;2023-04-03T19:46:22;3.50;99.90
20155;DHT22;10238;49.556;10.956;2023-04-03T19:49:13;3.40;99.90
20155;DHT22;10238;49.556;10.956;2023-04-03T19:52:00;3.40;99.90
20155;DHT22;10238;49.556;10.956;2023-04-03T19:54:48;3.30;99.90
20155;DHT22;10238;49.556;10.956;2023-04-03T19:57:38;3.20;99.90
20155;DHT22;10238;49.556;10.956;2023-04-03T20:00:27;3.20;99.90
20155;DHT22;10238;49.556;10.956;2023-04-03T20:03:16;3.10;99.90
20155;DHT22;10238;49.556;10.956;2023-04-03T20:06:05;3.00;99.90
20155;DHT22;10238;49.556;10.956;2023-04-03T20:08:53;3.00;99.90
20155;DHT22;10238;49.556;10.956;2023-04-03T20:11:41;2.90;99.90
20155;DHT22;10238;49.556;10.956;2023-04-03T20:14:29;2.90;99.90
20155;DHT22;10238;49.556;10.956;2023-04-03T20:17:18;2.70;99.90
20155;DHT22;10238;49.556;10.956;2023-04-03T20:20:07;2.70;99.90
20155;DHT22;10238;49.556;10.956;2023-04-03T20:22:57;2.70;99.90
20155;DHT22;10238;49.556;10.956;2023-04-03T20:25:46;2.60;99.90
20155;DHT22;10238;49.556;10.956;2023-04-03T20:28:55;2.50;99.90
20155;DHT22;10238;49.556;10.956;2023-04-03T20:31:44;2.50;99.90
20155;DHT22;10238;49.556;10.956;2023-04-03T20:34:32;2.40;99.90
20155;DHT22;10238;49.556;10.956;2023-04-03T20:37:20;2.30;99.90
20155;DHT22;10238;49.556;10.956;2023-04-03T20:40:11;2.20;99.90
20155;DHT22;10238;49.556;10.956;2023-04-03T20:43:00;2.20;99.90
20155;DHT22;10238;49.556;10.956;2023-04-03T20:45:48;2.10;99.90
20155;DHT22;10238;49.556;10.956;2023-04-03T20:48:38;2.10;99.90
20155;DHT22;10238;49.556;10.956;2023-04-03T20:51:26;2.10;99.90
20155;DHT22;10238;49.556;10.956;2023-04-03T20:54:14;2.00;99.90
20155;DHT22;10238;49.556;10.956;2023-04-03T20:57:04;2.00;99.90
20155;DHT22;10238;49.556;10.956;2023-04-03T20:59:52;1.90;99.90
20155;DHT22;10238;49.556;10.956;2023-04-03T21:02:40;1.90;99.90
20155;DHT22;10238;49.556;10.956;2023-04-03T21:05:29;1.90;99.90
20155;DHT22;10238;49.556;10.956;2023-04-03T21:22:01;1.60;99.90
20155;DHT22;10238;49.556;10.956;2023-04-03T21:24:48;1.60;99.90
20155;DHT22;10238;49.556;10.956;2023-04-03T21:27:36;1.60;99.90
20155;DHT22;10238;49.556;10.956;2023-04-03T21:30:24;1.50;99.90
20155;DHT22;10238;49.556;10.956;2023-04-03T21:33:12;1.50;99.90
20155;DHT22;10238;49.556;10.956;2023-04-03T21:36:01;1.50;99.90
20155;DHT22;10238;49.556;10.956;2023-04-03T21:38:48;1.50;99.90
20155;DHT22;10238;49.556;10.956;2023-04-03T21:41:37;1.40;99.90
20155;DHT22;10238;49.556;10.956;2023-04-03T21:44:24;1.30;99.90
20155;DHT22;10238;49.556;10.956;2023-04-03T21:47:13;1.30;99.90
20155;DHT22;10238;49.556;10.956;2023-04-03T21:50:01;1.20;99.90
20155;DHT22;10238;49.556;10.956;2023-04-03T21:52:53;1.20;99.90
20155;DHT22;10238;49.556;10.956;2023-04-03T21:55:41;1.10;99.90
20155;DHT22;10238;49.556;10.956;2023-04-03T21:58:38;1.10;99.90
20155;DHT22;10238;49.556;10.956;2023-04-03T22:01:26;1.10;99.90
20155;DHT22;10238;49.556;10.956;2023-04-03T22:04:15;1.00;99.90
20155;DHT22;10238;49.556;10.956;2023-04-03T22:07:02;1.00;99.90
20155;DHT22;10238;49.556;10.956;2023-04-03T22:09:52;0.90;99.90
20155;DHT22;10238;49.556;10.956;2023-04-03T22:12:41;0.90;99.90
